sensor_id;sensor_type;location;lat;lon;timestamp;pressure;altitude;pressure_sealevel;temperature;humidity
9721;BME280;4899;42.644;23.366;2023-02-02T00:01:51;94294.97;;;4.30;67.63
9721;BME280;4899;42.644;23.366;2023-02-02T00:04:19;94284.72;;;4.40;66.66
9721;BME280;4899;42.644;23.366;2023-02-02T00:06:44;94300.47;;;4.47;67.51
9721;BME280;4899;42.644;23.366;2023-02-02T00:09:16;94295.34;;;4.52;64.42
9721;BME280;4899;42.644;23.366;2023-02-02T00:11:42;94298.81;;;4.61;65.80
9721;BME280;4899;42.644;23.366;2023-02-02T00:14:08;94282.78;;;4.61;65.76
9721;BME280;4899;42.644;23.366;2023-02-02T00:16:45;94286.78;;;4.67;66.37
9721;BME280;4899;42.644;23.366;2023-02-02T00:19:18;94282.94;;;4.70;66.23
9721;BME280;4899;42.644;23.366;2023-02-02T00:21:44;94286.03;;;4.67;66.17
9721;BME280;4899;42.644;23.366;2023-02-02T00:24:11;94280.50;;;4.59;65.48
9721;BME280;4899;42.644;23.366;2023-02-02T00:26:39;94282.56;;;4.57;65.15
9721;BME280;4899;42.644;23.366;2023-02-02T00:29:06;94292.28;;;4.50;64.70
9721;BME280;4899;42.644;23.366;2023-02-02T00:31:32;94292.31;;;4.45;65.00
9721;BME280;4899;42.644;23.366;2023-02-02T00:33:58;94295.88;;;4.49;64.52
9721;BME280;4899;42.644;23.366;2023-02-02T00:36:24;94300.97;;;4.49;64.53
9721;BME280;4899;42.644;23.366;2023-02-02T00:38:49;94296.66;;;4.45;65.55
9721;BME280;4899;42.644;23.366;2023-02-02T00:41:16;94303.28;;;4.41;66.62
9721;BME280;4899;42.644;23.366;2023-02-02T00:43:41;94310.44;;;4.39;66.59
9721;BME280;4899;42.644;23.366;2023-02-02T00:46:11;94325.53;;;4.30;65.25
9721;BME280;4899;42.644;23.366;2023-02-02T00:48:38;94320.97;;;4.27;66.30
9721;BME280;4899;42.644;23.366;2023-02-02T00:51:03;94310.75;;;4.32;66.60
9721;BME280;4899;42.644;23.366;2023-02-02T00:53:29;94312.75;;;4.35;66.60
9721;BME280;4899;42.644;23.366;2023-02-02T00:55:54;94311.81;;;4.26;66.95
9721;BME280;4899;42.644;23.366;2023-02-02T00:58:20;94297.06;;;4.23;67.29
9721;BME280;4899;42.644;23.366;2023-02-02T01:00:45;94314.34;;;4.26;70.33
9721;BME280;4899;42.644;23.366;2023-02-02T01:03:11;94300.59;;;4.27;72.64
9721;BME280;4899;42.644;23.366;2023-02-02T01:05:37;94303.69;;;4.24;72.04
9721;BME280;4899;42.644;23.366;2023-02-02T01:08:03;94292.47;;;4.20;74.26
9721;BME280;4899;42.644;23.366;2023-02-02T01:10:29;94280.28;;;4.22;75.33
9721;BME280;4899;42.644;23.366;2023-02-02T01:12:54;94296.31;;;4.22;75.75
9721;BME280;4899;42.644;23.366;2023-02-02T01:15:19;94286.13;;;4.22;75.44
9721;BME280;4899;42.644;23.366;2023-02-02T01:17:45;94291.50;;;4.16;77.41
9721;BME280;4899;42.644;23.366;2023-02-02T01:20:16;94264.09;;;4.03;79.62
9721;BME280;4899;42.644;23.366;2023-02-02T01:22:42;94279.88;;;4.05;79.18
9721;BME280;4899;42.644;23.366;2023-02-02T01:25:08;94276.06;;;4.02;79.97
9721;BME280;4899;42.644;23.366;2023-02-02T01:27:34;94271.25;;;3.95;80.88
9721;BME280;4899;42.644;23.366;2023-02-02T01:30:00;94275.88;;;3.88;82.60
9721;BME280;4899;42.644;23.366;2023-02-02T01:32:25;94262.19;;;3.79;82.63
9721;BME280;4899;42.644;23.366;2023-02-02T01:34:51;94262.72;;;3.76;82.90
9721;BME280;4899;42.644;23.366;2023-02-02T01:37:16;94258.16;;;3.73;83.81
9721;BME280;4899;42.644;23.366;2023-02-02T01:39:41;94253.13;;;3.63;84.42
9721;BME280;4899;42.644;23.366;2023-02-02T01:42:18;94256.44;;;3.58;85.18
9721;BME280;4899;42.644;23.366;2023-02-02T01:47:32;94249.63;;;3.49;85.00
9721;BME280;4899;42.644;23.366;2023-02-02T01:50:00;94244.56;;;3.44;85.75
9721;BME280;4899;42.644;23.366;2023-02-02T01:52:28;94248.66;;;3.39;85.77
9721;BME280;4899;42.644;23.366;2023-02-02T01:54:59;94248.66;;;3.39;85.67
9721;BME280;4899;42.644;23.366;2023-02-02T01:57:38;94233.41;;;3.34;87.52
9721;BME280;4899;42.644;23.366;2023-02-02T02:00:09;94234.44;;;3.33;86.56
9721;BME280;4899;42.644;23.366;2023-02-02T02:02:35;94228.66;;;3.18;88.25
9721;BME280;4899;42.644;23.366;2023-02-02T02:05:03;94219.81;;;3.05;89.96
9721;BME280;4899;42.644;23.366;2023-02-02T02:07:30;94230.00;;;3.00;91.11
9721;BME280;4899;42.644;23.366;2023-02-02T02:09:55;94225.16;;;2.93;92.34
9721;BME280;4899;42.644;23.366;2023-02-02T02:12:21;94233.31;;;2.85;94.35
9721;BME280;4899;42.644;23.366;2023-02-02T02:14:48;94241.22;;;2.73;95.63
9721;BME280;4899;42.644;23.366;2023-02-02T02:37:14;94250.47;;;3.29;87.22
9721;BME280;4899;42.644;23.366;2023-02-02T02:39:47;94245.06;;;3.40;84.21
9721;BME280;4899;42.644;23.366;2023-02-02T02:42:19;94231.34;;;3.42;83.00
9721;BME280;4899;42.644;23.366;2023-02-02T02:44:47;94251.66;;;3.52;82.70
9721;BME280;4899;42.644;23.366;2023-02-02T02:47:14;94242.50;;;3.46;83.47
9721;BME280;4899;42.644;23.366;2023-02-02T02:49:44;94260.56;;;3.44;84.41
9721;BME280;4899;42.644;23.366;2023-02-02T02:52:10;94252.44;;;3.42;84.27
9721;BME280;4899;42.644;23.366;2023-02-02T02:54:44;94239.50;;;3.38;83.50
9721;BME280;4899;42.644;23.366;2023-02-02T02:57:28;94232.59;;;3.49;82.86
9721;BME280;4899;42.644;23.366;2023-02-02T03:08:57;94241.44;;;3.62;78.30
9721;BME280;4899;42.644;23.366;2023-02-02T03:11:24;94237.34;;;3.66;79.15
9721;BME280;4899;42.644;23.366;2023-02-02T03:13:50;94229.50;;;3.57;80.31
9721;BME280;4899;42.644;23.366;2023-02-02T03:16:16;94232.34;;;3.46;82.57
9721;BME280;4899;42.644;23.366;2023-02-02T03:18:42;94236.97;;;3.33;83.70
9721;BME280;4899;42.644;23.366;2023-02-02T03:21:07;94236.75;;;3.30;85.03
9721;BME280;4899;42.644;23.366;2023-02-02T03:23:33;94220.81;;;3.04;86.69
9721;BME280;4899;42.644;23.366;2023-02-02T03:25:59;94230.19;;;3.14;87.89
9721;BME280;4899;42.644;23.366;2023-02-02T03:28:25;94228.66;;;3.13;87.45
9721;BME280;4899;42.644;23.366;2023-02-02T03:30:52;94229.44;;;3.13;88.26
9721;BME280;4899;42.644;23.366;2023-02-02T03:33:19;94242.38;;;3.12;87.87
9721;BME280;4899;42.644;23.366;2023-02-02T03:35:45;94237.84;;;3.08;88.67
9721;BME280;4899;42.644;23.366;2023-02-02T03:38:11;94232.50;;;3.10;86.00
9721;BME280;4899;42.644;23.366;2023-02-02T03:40:37;94233.00;;;3.12;87.21
9721;BME280;4899;42.644;23.366;2023-02-02T03:43:03;94236.53;;;3.11;85.34
9721;BME280;4899;42.644;23.366;2023-02-02T03:45:29;94233.97;;;3.26;82.50
9721;BME280;4899;42.644;23.366;2023-02-02T03:47:56;94223.31;;;3.14;85.52
9721;BME280;4899;42.644;23.366;2023-02-02T03:50:22;94216.78;;;2.98;89.28
9721;BME280;4899;42.644;23.366;2023-02-02T03:52:49;94233.03;;;2.92;89.81
9721;BME280;4899;42.644;23.366;2023-02-02T03:55:15;94233.56;;;2.89;89.90
9721;BME280;4899;42.644;23.366;2023-02-02T03:57:40;94234.63;;;2.77;93.13
9721;BME280;4899;42.644;23.366;2023-02-02T04:00:07;94239.69;;;2.77;94.03
9721;BME280;4899;42.644;23.366;2023-02-02T04:02:32;94231.56;;;2.65;95.66
9721;BME280;4899;42.644;23.366;2023-02-02T04:04:58;94246.31;;;2.58;97.16
9721;BME280;4899;42.644;23.366;2023-02-02T04:07:23;94247.84;;;2.44;100.00
9721;BME280;4899;42.644;23.366;2023-02-02T04:09:49;94246.31;;;2.38;100.00
9721;BME280;4899;42.644;23.366;2023-02-02T04:12:14;94248.09;;;2.37;100.00
9721;BME280;4899;42.644;23.366;2023-02-02T04:14:40;94226.53;;;2.25;100.00
9721;BME280;4899;42.644;23.366;2023-02-02T04:17:05;94237.69;;;2.13;100.00
9721;BME280;4899;42.644;23.366;2023-02-02T04:19:31;94247.34;;;2.06;100.00
9721;BME280;4899;42.644;23.366;2023-02-02T04:21:56;94246.78;;;1.94;100.00
9721;BME280;4899;42.644;23.366;2023-02-02T04:24:22;94224.72;;;1.79;100.00
9721;BME280;4899;42.644;23.366;2023-02-02T04:26:47;94254.66;;;1.98;100.00
9721;BME280;4899;42.644;23.366;2023-02-02T04:29:13;94249.06;;;1.96;100.00
9721;BME280;4899;42.644;23.366;2023-02-02T04:31:38;94239.44;;;1.88;100.00
9721;BME280;4899;42.644;23.366;2023-02-02T04:34:04;94257.94;;;1.93;100.00
9721;BME280;4899;42.644;23.366;2023-02-02T04:36:29;94251.84;;;1.84;100.00
9721;BME280;4899;42.644;23.366;2023-02-02T04:38:55;94246.78;;;1.79;100.00
9721;BME280;4899;42.644;23.366;2023-02-02T04:41:21;94245.53;;;1.81;100.00
9721;BME280;4899;42.644;23.366;2023-02-02T04:43:47;94251.59;;;1.75;100.00
9721;BME280;4899;42.644;23.366;2023-02-02T04:46:13;94252.63;;;1.79;100.00
9721;BME280;4899;42.644;23.366;2023-02-02T04:48:39;94275.91;;;1.71;100.00
9721;BME280;4899;42.644;23.366;2023-02-02T04:51:09;94270.56;;;1.58;100.00
9721;BME280;4899;42.644;23.366;2023-02-02T04:53:35;94258.59;;;1.48;100.00
9721;BME280;4899;42.644;23.366;2023-02-02T04:56:08;94273.59;;;1.60;100.00
9721;BME280;4899;42.644;23.366;2023-02-02T04:58:34;94267.53;;;1.66;100.00
9721;BME280;4899;42.644;23.366;2023-02-02T05:01:00;94226.41;;;1.48;100.00
9721;BME280;4899;42.644;23.366;2023-02-02T05:03:25;94263.97;;;1.67;100.00
9721;BME280;4899;42.644;23.366;2023-02-02T05:06:00;94265.50;;;1.73;100.00
9721;BME280;4899;42.644;23.366;2023-02-02T05:08:25;94269.06;;;1.72;100.00
9721;BME280;4899;42.644;23.366;2023-02-02T05:10:51;94265.50;;;1.68;100.00
9721;BME280;4899;42.644;23.366;2023-02-02T05:13:16;94268.81;;;1.73;100.00
9721;BME280;4899;42.644;23.366;2023-02-02T05:15:42;94269.59;;;1.74;100.00
9721;BME280;4899;42.644;23.366;2023-02-02T05:18:07;94252.06;;;1.72;100.00
9721;BME280;4899;42.644;23.366;2023-02-02T05:20:33;94256.97;;;2.09;95.11
9721;BME280;4899;42.644;23.366;2023-02-02T05:22:58;94254.44;;;2.30;93.83
9721;BME280;4899;42.644;23.366;2023-02-02T05:25:23;94252.66;;;2.20;97.06
9721;BME280;4899;42.644;23.366;2023-02-02T05:27:49;94253.41;;;2.00;100.00
9721;BME280;4899;42.644;23.366;2023-02-02T05:30:15;94252.88;;;1.98;99.80
9721;BME280;4899;42.644;23.366;2023-02-02T05:32:40;94247.81;;;1.93;99.09
9721;BME280;4899;42.644;23.366;2023-02-02T05:35:06;94254.91;;;1.91;100.00
9721;BME280;4899;42.644;23.366;2023-02-02T05:37:32;94262.25;;;1.88;100.00
9721;BME280;4899;42.644;23.366;2023-02-02T05:39:58;94269.59;;;1.74;100.00
9721;BME280;4899;42.644;23.366;2023-02-02T05:42:23;94258.66;;;1.63;100.00
9721;BME280;4899;42.644;23.366;2023-02-02T05:44:49;94263.97;;;1.67;100.00
9721;BME280;4899;42.644;23.366;2023-02-02T05:47:14;94276.66;;;1.67;100.00
9721;BME280;4899;42.644;23.366;2023-02-02T05:49:40;94278.16;;;1.58;100.00
9721;BME280;4899;42.644;23.366;2023-02-02T05:52:05;94267.22;;;1.47;100.00
9721;BME280;4899;42.644;23.366;2023-02-02T05:54:31;94276.66;;;1.62;100.00
9721;BME280;4899;42.644;23.366;2023-02-02T05:56:58;94229.94;;;1.37;100.00
9721;BME280;4899;42.644;23.366;2023-02-02T05:59:25;94259.91;;;1.50;100.00
9721;BME280;4899;42.644;23.366;2023-02-02T06:01:52;94273.06;;;1.52;100.00
9721;BME280;4899;42.644;23.366;2023-02-02T06:04:18;94283.44;;;1.46;100.00
9721;BME280;4899;42.644;23.366;2023-02-02T06:06:44;94269.44;;;1.33;100.00
9721;BME280;4899;42.644;23.366;2023-02-02T06:09:10;94266.34;;;1.21;100.00
9721;BME280;4899;42.644;23.366;2023-02-02T06:11:36;94275.69;;;1.10;100.00
9721;BME280;4899;42.644;23.366;2023-02-02T06:14:04;94292.66;;;1.15;100.00
9721;BME280;4899;42.644;23.366;2023-02-02T06:16:29;94284.53;;;1.08;100.00
9721;BME280;4899;42.644;23.366;2023-02-02T06:18:55;94278.16;;;1.00;100.00
9721;BME280;4899;42.644;23.366;2023-02-02T06:21:20;94278.38;;;0.99;100.00
9721;BME280;4899;42.644;23.366;2023-02-02T06:23:49;94291.59;;;1.01;100.00
9721;BME280;4899;42.644;23.366;2023-02-02T06:26:15;94306.03;;;1.00;100.00
9721;BME280;4899;42.644;23.366;2023-02-02T06:28:41;94307.31;;;1.08;100.00
9721;BME280;4899;42.644;23.366;2023-02-02T06:31:09;94309.38;;;1.11;100.00
9721;BME280;4899;42.644;23.366;2023-02-02T06:33:36;94315.16;;;1.06;100.00
9721;BME280;4899;42.644;23.366;2023-02-02T06:36:03;94310.09;;;1.06;100.00
9721;BME280;4899;42.644;23.366;2023-02-02T06:38:30;94327.84;;;1.11;100.00
9721;BME280;4899;42.644;23.366;2023-02-02T06:40:58;94290.59;;;1.07;100.00
9721;BME280;4899;42.644;23.366;2023-02-02T06:43:24;94321.28;;;1.15;100.00
9721;BME280;4899;42.644;23.366;2023-02-02T06:45:50;94333.72;;;1.17;100.00
9721;BME280;4899;42.644;23.366;2023-02-02T06:48:15;94331.94;;;1.17;100.00
9721;BME280;4899;42.644;23.366;2023-02-02T06:50:41;94322.38;;;1.25;100.00
9721;BME280;4899;42.644;23.366;2023-02-02T06:53:07;94314.53;;;1.26;100.00
9721;BME280;4899;42.644;23.366;2023-02-02T06:55:32;94316.63;;;1.44;100.00
9721;BME280;4899;42.644;23.366;2023-02-02T06:57:59;94319.72;;;1.51;100.00
9721;BME280;4899;42.644;23.366;2023-02-02T07:00:26;94328.34;;;1.61;100.00
9721;BME280;4899;42.644;23.366;2023-02-02T07:02:51;94323.28;;;1.61;100.00
9721;BME280;4899;42.644;23.366;2023-02-02T07:05:17;94333.19;;;1.67;100.00
9721;BME280;4899;42.644;23.366;2023-02-02T07:07:51;94341.59;;;1.78;100.00
9721;BME280;4899;42.644;23.366;2023-02-02T07:10:16;94337.03;;;1.75;100.00
9721;BME280;4899;42.644;23.366;2023-02-02T07:12:43;94340.59;;;1.84;100.00
9721;BME280;4899;42.644;23.366;2023-02-02T07:15:08;94341.38;;;1.84;100.00
9721;BME280;4899;42.644;23.366;2023-02-02T07:17:34;94321.34;;;1.88;100.00
9721;BME280;4899;42.644;23.366;2023-02-02T07:20:00;94321.41;;;2.03;100.00
9721;BME280;4899;42.644;23.366;2023-02-02T07:22:25;94327.75;;;2.16;100.00
9721;BME280;4899;42.644;23.366;2023-02-02T07:24:50;94335.16;;;2.33;100.00
9721;BME280;4899;42.644;23.366;2023-02-02T07:27:16;94347.84;;;2.43;100.00
9721;BME280;4899;42.644;23.366;2023-02-02T07:29:42;94338.44;;;2.43;100.00
9721;BME280;4899;42.644;23.366;2023-02-02T07:32:07;94346.31;;;2.42;100.00
9721;BME280;4899;42.644;23.366;2023-02-02T07:34:35;94348.84;;;2.32;100.00
9721;BME280;4899;42.644;23.366;2023-02-02T07:37:01;94337.66;;;2.23;100.00
9721;BME280;4899;42.644;23.366;2023-02-02T07:39:27;94350.88;;;2.35;100.00
9721;BME280;4899;42.644;23.366;2023-02-02T07:41:52;94355.97;;;2.45;100.00
9721;BME280;4899;42.644;23.366;2023-02-02T07:44:18;94349.88;;;2.61;100.00
9721;BME280;4899;42.644;23.366;2023-02-02T07:46:44;94352.19;;;2.73;100.00
9721;BME280;4899;42.644;23.366;2023-02-02T07:49:15;94331.59;;;2.90;100.00
9721;BME280;4899;42.644;23.366;2023-02-02T07:51:41;94342.75;;;3.09;100.00
9721;BME280;4899;42.644;23.366;2023-02-02T07:54:07;94326.47;;;3.30;100.00
9721;BME280;4899;42.644;23.366;2023-02-02T07:56:33;94312.94;;;3.45;100.00
9721;BME280;4899;42.644;23.366;2023-02-02T07:58:59;94318.19;;;3.69;100.00
9721;BME280;4899;42.644;23.366;2023-02-02T08:01:26;94307.75;;;3.76;100.00
9721;BME280;4899;42.644;23.366;2023-02-02T08:03:53;94311.00;;;3.86;100.00
9721;BME280;4899;42.644;23.366;2023-02-02T08:06:27;94313.75;;;3.95;98.81
9721;BME280;4899;42.644;23.366;2023-02-02T08:08:54;94299.00;;;3.97;96.95
9721;BME280;4899;42.644;23.366;2023-02-02T08:11:22;94298.38;;;4.15;95.40
9721;BME280;4899;42.644;23.366;2023-02-02T08:13:50;94306.66;;;4.36;90.33
9721;BME280;4899;42.644;23.366;2023-02-02T08:16:16;94294.31;;;4.53;87.66
9721;BME280;4899;42.644;23.366;2023-02-02T08:18:42;94294.59;;;4.81;90.98
9721;BME280;4899;42.644;23.366;2023-02-02T08:21:08;94288.56;;;5.01;92.39
9721;BME280;4899;42.644;23.366;2023-02-02T08:23:35;94294.91;;;5.03;92.40
9721;BME280;4899;42.644;23.366;2023-02-02T08:26:21;94295.72;;;4.99;92.21
9721;BME280;4899;42.644;23.366;2023-02-02T08:28:51;94285.88;;;4.87;94.33
9721;BME280;4899;42.644;23.366;2023-02-02T08:31:20;94288.03;;;4.75;95.27
9721;BME280;4899;42.644;23.366;2023-02-02T08:33:46;94277.16;;;4.64;95.80
9721;BME280;4899;42.644;23.366;2023-02-02T08:36:17;94282.47;;;4.68;96.44
9721;BME280;4899;42.644;23.366;2023-02-02T08:38:43;94283.47;;;4.72;96.80
9721;BME280;4899;42.644;23.366;2023-02-02T08:41:12;94273.78;;;4.69;96.30
9721;BME280;4899;42.644;23.366;2023-02-02T08:43:38;94275.34;;;4.64;96.92
9721;BME280;4899;42.644;23.366;2023-02-02T08:46:04;94280.19;;;4.66;96.55
9721;BME280;4899;42.644;23.366;2023-02-02T08:48:30;94291.44;;;4.60;96.81
9721;BME280;4899;42.644;23.366;2023-02-02T08:50:57;94280.94;;;4.67;97.30
9721;BME280;4899;42.644;23.366;2023-02-02T08:53:23;94273.94;;;4.82;95.33
9721;BME280;4899;42.644;23.366;2023-02-02T08:55:57;94277.47;;;4.86;95.60
9721;BME280;4899;42.644;23.366;2023-02-02T08:58:23;94269.50;;;4.93;96.48
9721;BME280;4899;42.644;23.366;2023-02-02T09:00:48;94272.53;;;4.95;95.68
9721;BME280;4899;42.644;23.366;2023-02-02T09:03:15;94274.09;;;4.91;96.20
9721;BME280;4899;42.644;23.366;2023-02-02T09:05:41;94280.81;;;4.82;96.88
9721;BME280;4899;42.644;23.366;2023-02-02T09:08:06;94276.28;;;4.79;97.37
9721;BME280;4899;42.644;23.366;2023-02-02T09:10:34;94274.91;;;4.86;97.76
9721;BME280;4899;42.644;23.366;2023-02-02T09:13:00;94267.50;;;4.90;97.66
9721;BME280;4899;42.644;23.366;2023-02-02T09:15:25;94274.78;;;5.02;97.43
9721;BME280;4899;42.644;23.366;2023-02-02T09:17:51;94263.28;;;5.04;97.44
9721;BME280;4899;42.644;23.366;2023-02-02T09:20:17;94249.41;;;5.15;96.94
9721;BME280;4899;42.644;23.366;2023-02-02T09:22:42;94249.78;;;5.28;96.42
9721;BME280;4899;42.644;23.366;2023-02-02T09:25:08;94252.00;;;5.34;95.65
9721;BME280;4899;42.644;23.366;2023-02-02T09:27:37;94251.72;;;5.36;94.60
9721;BME280;4899;42.644;23.366;2023-02-02T09:30:03;94261.88;;;5.41;94.11
9721;BME280;4899;42.644;23.366;2023-02-02T09:32:29;94256.00;;;5.40;93.61
9721;BME280;4899;42.644;23.366;2023-02-02T09:34:54;94259.66;;;5.34;92.54
9721;BME280;4899;42.644;23.366;2023-02-02T09:37:20;94267.44;;;5.43;92.64
9721;BME280;4899;42.644;23.366;2023-02-02T09:39:45;94258.75;;;5.44;92.84
9721;BME280;4899;42.644;23.366;2023-02-02T09:42:32;94254.97;;;5.41;90.81
9721;BME280;4899;42.644;23.366;2023-02-02T09:45:23;94243.03;;;5.37;91.14
9721;BME280;4899;42.644;23.366;2023-02-02T09:47:57;94232.22;;;5.45;92.09
9721;BME280;4899;42.644;23.366;2023-02-02T09:50:30;94241.34;;;5.51;91.08
9721;BME280;4899;42.644;23.366;2023-02-02T09:53:13;94241.50;;;5.60;90.85
9721;BME280;4899;42.644;23.366;2023-02-02T09:55:47;94214.59;;;5.48;91.81
9721;BME280;4899;42.644;23.366;2023-02-02T09:58:33;94227.31;;;5.72;89.18
9721;BME280;4899;42.644;23.366;2023-02-02T10:01:13;94209.84;;;5.79;89.02
9721;BME280;4899;42.644;23.366;2023-02-02T10:04:22;94221.97;;;5.87;88.48
9721;BME280;4899;42.644;23.366;2023-02-02T10:11:40;94218.53;;;6.16;85.53
9721;BME280;4899;42.644;23.366;2023-02-02T10:14:23;94219.00;;;6.18;82.09
9721;BME280;4899;42.644;23.366;2023-02-02T10:16:53;94196.72;;;6.24;82.10
9721;BME280;4899;42.644;23.366;2023-02-02T10:19:19;94192.13;;;6.39;82.96
9721;BME280;4899;42.644;23.366;2023-02-02T10:24:19;94208.28;;;6.81;79.04
9721;BME280;4899;42.644;23.366;2023-02-02T10:26:54;94188.41;;;6.92;73.41
9721;BME280;4899;42.644;23.366;2023-02-02T10:34:29;94200.59;;;7.50;69.76
9721;BME280;4899;42.644;23.366;2023-02-02T10:45:40;94175.53;;;9.12;60.86
9721;BME280;4899;42.644;23.366;2023-02-02T10:48:16;94173.44;;;9.22;53.41
9721;BME280;4899;42.644;23.366;2023-02-02T10:50:46;94169.56;;;8.85;53.16
9721;BME280;4899;42.644;23.366;2023-02-02T10:53:14;94146.28;;;8.73;54.05
9721;BME280;4899;42.644;23.366;2023-02-02T11:01:16;94145.69;;;8.76;52.79
9721;BME280;4899;42.644;23.366;2023-02-02T11:03:42;94141.19;;;8.82;52.12
9721;BME280;4899;42.644;23.366;2023-02-02T11:06:12;94130.94;;;8.90;51.23
9721;BME280;4899;42.644;23.366;2023-02-02T11:08:56;94143.00;;;8.81;49.91
9721;BME280;4899;42.644;23.366;2023-02-02T11:11:37;94141.56;;;8.67;49.75
9721;BME280;4899;42.644;23.366;2023-02-02T11:16:36;94132.78;;;8.50;50.24
9721;BME280;4899;42.644;23.366;2023-02-02T11:19:21;94138.84;;;8.63;49.06
9721;BME280;4899;42.644;23.366;2023-02-02T11:21:51;94125.25;;;8.54;48.79
9721;BME280;4899;42.644;23.366;2023-02-02T11:24:27;94126.28;;;8.53;49.02
9721;BME280;4899;42.644;23.366;2023-02-02T11:31:56;94113.66;;;8.65;48.37
9721;BME280;4899;42.644;23.366;2023-02-02T11:34:27;94087.19;;;8.78;48.48
9721;BME280;4899;42.644;23.366;2023-02-02T11:39:34;94105.91;;;8.87;48.76
9721;BME280;4899;42.644;23.366;2023-02-02T11:42:11;94112.28;;;8.99;47.72
9721;BME280;4899;42.644;23.366;2023-02-02T11:44:38;94111.63;;;8.84;47.56
9721;BME280;4899;42.644;23.366;2023-02-02T11:47:04;94084.19;;;8.93;47.50
9721;BME280;4899;42.644;23.366;2023-02-02T11:49:42;94072.75;;;9.00;47.45
9721;BME280;4899;42.644;23.366;2023-02-02T11:52:18;94095.22;;;9.03;46.83
9721;BME280;4899;42.644;23.366;2023-02-02T11:54:48;94099.78;;;9.32;46.93
9721;BME280;4899;42.644;23.366;2023-02-02T11:57:25;94057.03;;;9.62;45.46
9721;BME280;4899;42.644;23.366;2023-02-02T12:02:34;94076.72;;;10.98;42.78
9721;BME280;4899;42.644;23.366;2023-02-02T12:07:34;94065.06;;;11.21;41.99
9721;BME280;4899;42.644;23.366;2023-02-02T12:10:10;94073.28;;;11.56;42.10
9721;BME280;4899;42.644;23.366;2023-02-02T12:21:29;94074.28;;;13.03;39.80
9721;BME280;4899;42.644;23.366;2023-02-02T12:26:33;94073.94;;;10.82;42.14
9721;BME280;4899;42.644;23.366;2023-02-02T12:32:05;94057.66;;;10.69;42.84
9721;BME280;4899;42.644;23.366;2023-02-02T12:38:23;94084.50;;;9.87;43.99
9721;BME280;4899;42.644;23.366;2023-02-02T12:43:44;94109.09;;;8.93;44.41
9721;BME280;4899;42.644;23.366;2023-02-02T12:49:13;94074.50;;;8.73;45.63
9721;BME280;4899;42.644;23.366;2023-02-02T13:03:26;94074.53;;;8.42;47.54
9721;BME280;4899;42.644;23.366;2023-02-02T13:09:02;94068.50;;;8.38;47.35
9721;BME280;4899;42.644;23.366;2023-02-02T13:11:40;94070.41;;;8.32;46.65
9721;BME280;4899;42.644;23.366;2023-02-02T13:14:20;94073.78;;;8.42;46.87
9721;BME280;4899;42.644;23.366;2023-02-02T13:16:51;94059.75;;;9.74;45.85
9721;BME280;4899;42.644;23.366;2023-02-02T13:19:55;94051.25;;;9.99;44.43
9721;BME280;4899;42.644;23.366;2023-02-02T13:22:27;94068.47;;;10.84;44.22
9721;BME280;4899;42.644;23.366;2023-02-02T13:24:57;94081.69;;;10.73;44.69
9721;BME280;4899;42.644;23.366;2023-02-02T13:27:24;94067.88;;;9.93;45.38
9721;BME280;4899;42.644;23.366;2023-02-02T13:30:04;94054.94;;;9.72;45.04
9721;BME280;4899;42.644;23.366;2023-02-02T13:32:40;94057.97;;;9.57;45.81
9721;BME280;4899;42.644;23.366;2023-02-02T13:35:20;94063.84;;;9.32;45.35
9721;BME280;4899;42.644;23.366;2023-02-02T13:37:53;94071.03;;;8.86;44.71
9721;BME280;4899;42.644;23.366;2023-02-02T13:40:41;94089.50;;;8.49;45.35
9721;BME280;4899;42.644;23.366;2023-02-02T13:48:40;94062.53;;;8.20;46.33
9721;BME280;4899;42.644;23.366;2023-02-02T13:59:21;94058.00;;;10.89;43.43
9721;BME280;4899;42.644;23.366;2023-02-02T14:01:50;94076.66;;;9.92;43.86
9721;BME280;4899;42.644;23.366;2023-02-02T14:04:22;94056.34;;;10.16;43.67
9721;BME280;4899;42.644;23.366;2023-02-02T14:07:02;94065.47;;;9.97;45.66
9721;BME280;4899;42.644;23.366;2023-02-02T14:09:32;94069.28;;;9.39;46.64
9721;BME280;4899;42.644;23.366;2023-02-02T14:12:02;94057.84;;;10.17;46.64
9721;BME280;4899;42.644;23.366;2023-02-02T14:14:32;94047.22;;;9.72;47.97
9721;BME280;4899;42.644;23.366;2023-02-02T14:17:52;94052.97;;;9.09;49.85
9721;BME280;4899;42.644;23.366;2023-02-02T14:20:00;94039.78;;;8.67;51.35
9721;BME280;4899;42.644;23.366;2023-02-02T14:22:45;94058.53;;;8.37;51.67
9721;BME280;4899;42.644;23.366;2023-02-02T14:28:09;94056.16;;;7.87;52.39
9721;BME280;4899;42.644;23.366;2023-02-02T14:30:37;94040.66;;;7.61;52.96
9721;BME280;4899;42.644;23.366;2023-02-02T14:38:34;94062.75;;;6.98;56.39
9721;BME280;4899;42.644;23.366;2023-02-02T14:41:23;94068.81;;;6.89;56.75
9721;BME280;4899;42.644;23.366;2023-02-02T14:44:11;94084.09;;;6.80;57.65
9721;BME280;4899;42.644;23.366;2023-02-02T14:46:38;94107.19;;;6.61;61.79
9721;BME280;4899;42.644;23.366;2023-02-02T14:51:32;94160.06;;;5.63;100.00
9721;BME280;4899;42.644;23.366;2023-02-02T14:53:59;94171.91;;;4.92;100.00
9721;BME280;4899;42.644;23.366;2023-02-02T14:56:47;94205.97;;;4.15;100.00
9721;BME280;4899;42.644;23.366;2023-02-02T14:59:28;94196.06;;;3.79;100.00
9721;BME280;4899;42.644;23.366;2023-02-02T15:02:13;94200.94;;;3.26;100.00
9721;BME280;4899;42.644;23.366;2023-02-02T15:04:41;94210.69;;;2.94;100.00
9721;BME280;4899;42.644;23.366;2023-02-02T15:09:49;94249.09;;;2.67;100.00
9721;BME280;4899;42.644;23.366;2023-02-02T15:12:17;94240.22;;;2.44;100.00
9721;BME280;4899;42.644;23.366;2023-02-02T15:15:04;94263.34;;;2.27;100.00
9721;BME280;4899;42.644;23.366;2023-02-02T15:25:50;94309.59;;;1.62;100.00
9721;BME280;4899;42.644;23.366;2023-02-02T15:28:19;94320.25;;;1.64;100.00
9721;BME280;4899;42.644;23.366;2023-02-02T15:30:53;94313.66;;;1.63;100.00
9721;BME280;4899;42.644;23.366;2023-02-02T15:33:28;94305.03;;;1.64;100.00
9721;BME280;4899;42.644;23.366;2023-02-02T15:35:56;94301.22;;;1.51;100.00
9721;BME280;4899;42.644;23.366;2023-02-02T15:38:29;94287.19;;;1.38;100.00
9721;BME280;4899;42.644;23.366;2023-02-02T15:41:03;94295.56;;;1.34;100.00
9721;BME280;4899;42.644;23.366;2023-02-02T15:43:29;94290.22;;;1.30;100.00
9721;BME280;4899;42.644;23.366;2023-02-02T15:46:04;94303.06;;;1.18;100.00
9721;BME280;4899;42.644;23.366;2023-02-02T15:48:31;94304.31;;;1.16;100.00
9721;BME280;4899;42.644;23.366;2023-02-02T15:51:06;94316.22;;;1.15;100.00
9721;BME280;4899;42.644;23.366;2023-02-02T15:58:50;94326.63;;;1.19;100.00
9721;BME280;4899;42.644;23.366;2023-02-02T16:01:18;94322.06;;;1.16;100.00